sensor_id;sensor_type;location;lat;lon;timestamp;P1;durP1;ratioP1;P2;durP2;ratioP2
16254;SDS011;8235;52.198;9.904;2023-08-06T00:02:10;3.93;;;3.43;;
16254;SDS011;8235;52.198;9.904;2023-08-06T00:04:37;3.80;;;2.70;;
16254;SDS011;8235;52.198;9.904;2023-08-06T00:07:05;4.83;;;3.10;;
16254;SDS011;8235;52.198;9.904;2023-08-06T00:09:31;5.20;;;3.00;;
16254;SDS011;8235;52.198;9.904;2023-08-06T00:11:58;14.20;;;3.40;;
16254;SDS011;8235;52.198;9.904;2023-08-06T00:14:24;4.23;;;2.87;;
16254;SDS011;8235;52.198;9.904;2023-08-06T00:16:50;5.07;;;2.83;;
16254;SDS011;8235;52.198;9.904;2023-08-06T00:19:17;4.80;;;2.73;;
16254;SDS011;8235;52.198;9.904;2023-08-06T00:21:43;3.73;;;3.10;;
16254;SDS011;8235;52.198;9.904;2023-08-06T00:24:11;7.53;;;3.17;;
16254;SDS011;8235;52.198;9.904;2023-08-06T00:26:38;6.03;;;3.50;;
16254;SDS011;8235;52.198;9.904;2023-08-06T00:29:04;5.60;;;3.10;;
16254;SDS011;8235;52.198;9.904;2023-08-06T00:31:31;4.20;;;3.37;;
16254;SDS011;8235;52.198;9.904;2023-08-06T00:33:57;3.80;;;3.40;;
16254;SDS011;8235;52.198;9.904;2023-08-06T00:36:24;4.30;;;2.83;;
16254;SDS011;8235;52.198;9.904;2023-08-06T00:38:50;4.40;;;3.50;;
16254;SDS011;8235;52.198;9.904;2023-08-06T00:41:18;3.53;;;2.83;;
16254;SDS011;8235;52.198;9.904;2023-08-06T00:43:44;4.83;;;3.13;;
16254;SDS011;8235;52.198;9.904;2023-08-06T00:46:11;4.53;;;3.60;;
16254;SDS011;8235;52.198;9.904;2023-08-06T00:48:37;3.93;;;3.30;;
16254;SDS011;8235;52.198;9.904;2023-08-06T00:51:04;4.63;;;3.90;;
16254;SDS011;8235;52.198;9.904;2023-08-06T00:53:31;4.53;;;3.63;;
16254;SDS011;8235;52.198;9.904;2023-08-06T00:55:57;4.97;;;2.97;;
16254;SDS011;8235;52.198;9.904;2023-08-06T00:58:26;3.47;;;3.13;;
16254;SDS011;8235;52.198;9.904;2023-08-06T01:00:52;4.20;;;3.27;;
16254;SDS011;8235;52.198;9.904;2023-08-06T01:03:18;4.20;;;3.20;;
16254;SDS011;8235;52.198;9.904;2023-08-06T01:05:45;7.73;;;3.97;;
16254;SDS011;8235;52.198;9.904;2023-08-06T01:08:15;5.97;;;3.80;;
16254;SDS011;8235;52.198;9.904;2023-08-06T01:10:52;4.67;;;3.97;;
16254;SDS011;8235;52.198;9.904;2023-08-06T01:13:33;4.17;;;3.13;;
16254;SDS011;8235;52.198;9.904;2023-08-06T01:16:06;4.00;;;3.27;;
16254;SDS011;8235;52.198;9.904;2023-08-06T01:18:35;4.93;;;3.40;;
16254;SDS011;8235;52.198;9.904;2023-08-06T01:21:05;4.93;;;3.60;;
16254;SDS011;8235;52.198;9.904;2023-08-06T01:23:31;7.80;;;3.83;;
16254;SDS011;8235;52.198;9.904;2023-08-06T01:26:01;3.60;;;3.03;;
16254;SDS011;8235;52.198;9.904;2023-08-06T01:28:38;7.90;;;3.70;;
16254;SDS011;8235;52.198;9.904;2023-08-06T01:31:10;4.77;;;3.07;;
16254;SDS011;8235;52.198;9.904;2023-08-06T01:33:44;7.27;;;3.67;;
16254;SDS011;8235;52.198;9.904;2023-08-06T01:36:14;7.17;;;3.17;;
16254;SDS011;8235;52.198;9.904;2023-08-06T01:38:42;5.83;;;3.03;;
16254;SDS011;8235;52.198;9.904;2023-08-06T01:41:09;8.17;;;3.27;;
16254;SDS011;8235;52.198;9.904;2023-08-06T01:43:36;8.50;;;3.57;;
16254;SDS011;8235;52.198;9.904;2023-08-06T01:46:02;6.13;;;3.67;;
16254;SDS011;8235;52.198;9.904;2023-08-06T01:48:29;5.93;;;3.57;;
16254;SDS011;8235;52.198;9.904;2023-08-06T01:50:55;7.80;;;3.63;;
16254;SDS011;8235;52.198;9.904;2023-08-06T01:53:23;5.03;;;3.60;;
16254;SDS011;8235;52.198;9.904;2023-08-06T01:55:49;5.50;;;3.47;;
16254;SDS011;8235;52.198;9.904;2023-08-06T01:58:16;4.53;;;3.70;;
16254;SDS011;8235;52.198;9.904;2023-08-06T02:00:42;5.87;;;4.00;;
16254;SDS011;8235;52.198;9.904;2023-08-06T02:03:09;3.73;;;3.40;;
16254;SDS011;8235;52.198;9.904;2023-08-06T02:05:35;6.03;;;3.80;;
16254;SDS011;8235;52.198;9.904;2023-08-06T02:08:02;4.93;;;3.03;;
16254;SDS011;8235;52.198;9.904;2023-08-06T02:10:30;6.97;;;3.40;;
16254;SDS011;8235;52.198;9.904;2023-08-06T02:12:56;5.90;;;3.63;;
16254;SDS011;8235;52.198;9.904;2023-08-06T02:15:22;4.63;;;3.50;;
16254;SDS011;8235;52.198;9.904;2023-08-06T02:17:49;5.50;;;3.40;;
16254;SDS011;8235;52.198;9.904;2023-08-06T02:20:15;7.33;;;3.37;;
16254;SDS011;8235;52.198;9.904;2023-08-06T02:22:42;6.97;;;3.90;;
16254;SDS011;8235;52.198;9.904;2023-08-06T02:25:08;4.10;;;3.30;;
16254;SDS011;8235;52.198;9.904;2023-08-06T02:27:36;4.97;;;3.97;;
16254;SDS011;8235;52.198;9.904;2023-08-06T02:30:03;6.83;;;3.93;;
16254;SDS011;8235;52.198;9.904;2023-08-06T02:32:31;4.90;;;4.33;;
16254;SDS011;8235;52.198;9.904;2023-08-06T02:35:00;4.83;;;4.33;;
16254;SDS011;8235;52.198;9.904;2023-08-06T02:37:27;5.60;;;4.07;;
16254;SDS011;8235;52.198;9.904;2023-08-06T02:39:53;4.07;;;3.40;;
16254;SDS011;8235;52.198;9.904;2023-08-06T02:42:20;5.87;;;3.53;;
16254;SDS011;8235;52.198;9.904;2023-08-06T02:44:47;4.47;;;3.47;;
16254;SDS011;8235;52.198;9.904;2023-08-06T02:47:14;4.27;;;3.20;;
16254;SDS011;8235;52.198;9.904;2023-08-06T02:49:40;4.60;;;3.77;;
16254;SDS011;8235;52.198;9.904;2023-08-06T02:52:07;8.10;;;3.90;;
16254;SDS011;8235;52.198;9.904;2023-08-06T02:54:33;10.40;;;3.70;;
16254;SDS011;8235;52.198;9.904;2023-08-06T02:57:00;8.93;;;4.07;;
16254;SDS011;8235;52.198;9.904;2023-08-06T02:59:26;8.30;;;3.53;;
16254;SDS011;8235;52.198;9.904;2023-08-06T03:01:54;6.17;;;3.57;;
16254;SDS011;8235;52.198;9.904;2023-08-06T03:04:20;6.53;;;2.97;;
16254;SDS011;8235;52.198;9.904;2023-08-06T03:06:48;3.83;;;3.33;;
16254;SDS011;8235;52.198;9.904;2023-08-06T03:09:15;4.23;;;3.70;;
16254;SDS011;8235;52.198;9.904;2023-08-06T03:11:42;4.07;;;3.67;;
16254;SDS011;8235;52.198;9.904;2023-08-06T03:14:08;4.53;;;3.80;;
16254;SDS011;8235;52.198;9.904;2023-08-06T03:16:35;4.33;;;3.70;;
16254;SDS011;8235;52.198;9.904;2023-08-06T03:19:04;5.77;;;4.43;;
16254;SDS011;8235;52.198;9.904;2023-08-06T03:21:30;4.80;;;3.67;;
16254;SDS011;8235;52.198;9.904;2023-08-06T03:23:57;6.30;;;4.40;;
16254;SDS011;8235;52.198;9.904;2023-08-06T03:26:23;4.63;;;3.93;;
16254;SDS011;8235;52.198;9.904;2023-08-06T03:28:49;4.43;;;3.83;;
16254;SDS011;8235;52.198;9.904;2023-08-06T03:31:16;6.07;;;4.13;;
16254;SDS011;8235;52.198;9.904;2023-08-06T03:33:42;4.83;;;4.27;;
16254;SDS011;8235;52.198;9.904;2023-08-06T03:36:10;5.27;;;4.40;;
16254;SDS011;8235;52.198;9.904;2023-08-06T03:38:37;4.50;;;4.10;;
16254;SDS011;8235;52.198;9.904;2023-08-06T03:41:03;6.30;;;3.83;;
16254;SDS011;8235;52.198;9.904;2023-08-06T03:43:30;5.03;;;4.27;;
16254;SDS011;8235;52.198;9.904;2023-08-06T03:45:56;4.97;;;4.00;;
16254;SDS011;8235;52.198;9.904;2023-08-06T03:48:23;5.17;;;4.33;;
16254;SDS011;8235;52.198;9.904;2023-08-06T03:50:49;6.47;;;4.43;;
16254;SDS011;8235;52.198;9.904;2023-08-06T03:53:17;6.20;;;4.50;;
16254;SDS011;8235;52.198;9.904;2023-08-06T03:55:43;6.87;;;4.90;;
16254;SDS011;8235;52.198;9.904;2023-08-06T03:58:10;4.97;;;3.80;;
16254;SDS011;8235;52.198;9.904;2023-08-06T04:00:36;7.17;;;3.77;;
16254;SDS011;8235;52.198;9.904;2023-08-06T04:03:03;5.43;;;4.10;;
16254;SDS011;8235;52.198;9.904;2023-08-06T04:05:30;8.47;;;4.03;;
16254;SDS011;8235;52.198;9.904;2023-08-06T04:07:57;5.37;;;3.83;;
16254;SDS011;8235;52.198;9.904;2023-08-06T04:10:26;5.30;;;3.70;;
16254;SDS011;8235;52.198;9.904;2023-08-06T04:12:53;5.43;;;4.20;;
16254;SDS011;8235;52.198;9.904;2023-08-06T04:15:19;8.60;;;4.33;;
16254;SDS011;8235;52.198;9.904;2023-08-06T04:17:46;13.03;;;4.70;;
16254;SDS011;8235;52.198;9.904;2023-08-06T04:20:12;15.87;;;5.77;;
16254;SDS011;8235;52.198;9.904;2023-08-06T04:22:39;6.13;;;4.37;;
16254;SDS011;8235;52.198;9.904;2023-08-06T04:25:06;6.97;;;4.97;;
16254;SDS011;8235;52.198;9.904;2023-08-06T04:27:34;5.43;;;4.80;;
16254;SDS011;8235;52.198;9.904;2023-08-06T04:30:02;6.77;;;4.27;;
16254;SDS011;8235;52.198;9.904;2023-08-06T04:32:30;4.90;;;4.40;;
16254;SDS011;8235;52.198;9.904;2023-08-06T04:34:56;5.57;;;4.73;;
16254;SDS011;8235;52.198;9.904;2023-08-06T04:37:23;6.10;;;5.40;;
16254;SDS011;8235;52.198;9.904;2023-08-06T04:39:50;6.50;;;5.57;;
16254;SDS011;8235;52.198;9.904;2023-08-06T04:42:16;6.07;;;5.07;;
16254;SDS011;8235;52.198;9.904;2023-08-06T04:44:44;6.70;;;5.73;;
16254;SDS011;8235;52.198;9.904;2023-08-06T04:47:11;6.73;;;5.30;;
16254;SDS011;8235;52.198;9.904;2023-08-06T04:49:37;5.57;;;4.97;;
16254;SDS011;8235;52.198;9.904;2023-08-06T04:52:04;7.87;;;4.53;;
16254;SDS011;8235;52.198;9.904;2023-08-06T04:54:31;7.47;;;4.43;;
16254;SDS011;8235;52.198;9.904;2023-08-06T04:56:58;6.90;;;4.90;;
16254;SDS011;8235;52.198;9.904;2023-08-06T04:59:24;7.77;;;5.20;;
16254;SDS011;8235;52.198;9.904;2023-08-06T05:01:52;7.30;;;4.77;;
16254;SDS011;8235;52.198;9.904;2023-08-06T05:04:18;7.43;;;5.63;;
16254;SDS011;8235;52.198;9.904;2023-08-06T05:06:45;7.07;;;5.70;;
16254;SDS011;8235;52.198;9.904;2023-08-06T05:09:11;6.73;;;5.70;;
16254;SDS011;8235;52.198;9.904;2023-08-06T05:11:38;7.50;;;5.77;;
16254;SDS011;8235;52.198;9.904;2023-08-06T05:14:04;9.47;;;5.87;;
16254;SDS011;8235;52.198;9.904;2023-08-06T05:16:30;6.57;;;5.40;;
16254;SDS011;8235;52.198;9.904;2023-08-06T05:18:58;9.33;;;5.40;;
16254;SDS011;8235;52.198;9.904;2023-08-06T05:21:25;7.63;;;5.37;;
16254;SDS011;8235;52.198;9.904;2023-08-06T05:23:51;7.10;;;5.50;;
16254;SDS011;8235;52.198;9.904;2023-08-06T05:26:18;8.13;;;5.60;;
16254;SDS011;8235;52.198;9.904;2023-08-06T05:28:44;6.67;;;5.60;;
16254;SDS011;8235;52.198;9.904;2023-08-06T05:31:11;8.33;;;5.73;;
16254;SDS011;8235;52.198;9.904;2023-08-06T05:33:37;7.47;;;5.37;;
16254;SDS011;8235;52.198;9.904;2023-08-06T05:36:05;8.83;;;5.93;;
16254;SDS011;8235;52.198;9.904;2023-08-06T05:38:32;7.23;;;5.73;;
16254;SDS011;8235;52.198;9.904;2023-08-06T05:40:58;6.90;;;5.00;;
16254;SDS011;8235;52.198;9.904;2023-08-06T05:43:25;7.60;;;6.77;;
16254;SDS011;8235;52.198;9.904;2023-08-06T05:45:51;9.00;;;5.30;;
16254;SDS011;8235;52.198;9.904;2023-08-06T05:48:18;7.00;;;5.90;;
16254;SDS011;8235;52.198;9.904;2023-08-06T05:50:44;6.80;;;5.40;;
16254;SDS011;8235;52.198;9.904;2023-08-06T05:53:12;9.20;;;6.27;;
16254;SDS011;8235;52.198;9.904;2023-08-06T05:55:38;5.93;;;5.33;;
16254;SDS011;8235;52.198;9.904;2023-08-06T05:58:05;9.73;;;5.50;;
16254;SDS011;8235;52.198;9.904;2023-08-06T06:00:31;7.83;;;5.67;;
16254;SDS011;8235;52.198;9.904;2023-08-06T06:02:58;6.03;;;5.43;;
16254;SDS011;8235;52.198;9.904;2023-08-06T06:05:24;6.33;;;4.73;;
16254;SDS011;8235;52.198;9.904;2023-08-06T06:07:51;4.97;;;4.20;;
16254;SDS011;8235;52.198;9.904;2023-08-06T06:10:19;4.40;;;4.00;;
16254;SDS011;8235;52.198;9.904;2023-08-06T06:12:45;4.20;;;3.77;;
16254;SDS011;8235;52.198;9.904;2023-08-06T06:15:12;5.77;;;4.27;;
16254;SDS011;8235;52.198;9.904;2023-08-06T06:17:38;4.43;;;3.97;;
16254;SDS011;8235;52.198;9.904;2023-08-06T06:20:05;4.50;;;3.40;;
16254;SDS011;8235;52.198;9.904;2023-08-06T06:22:32;5.90;;;3.63;;
16254;SDS011;8235;52.198;9.904;2023-08-06T06:24:59;4.93;;;3.37;;
16254;SDS011;8235;52.198;9.904;2023-08-06T06:27:27;4.23;;;3.50;;
16254;SDS011;8235;52.198;9.904;2023-08-06T06:29:53;4.50;;;3.13;;
16254;SDS011;8235;52.198;9.904;2023-08-06T06:32:20;4.10;;;3.10;;
16254;SDS011;8235;52.198;9.904;2023-08-06T06:34:47;3.80;;;2.50;;
16254;SDS011;8235;52.198;9.904;2023-08-06T06:37:13;6.17;;;3.00;;
16254;SDS011;8235;52.198;9.904;2023-08-06T06:39:40;3.13;;;2.80;;
16254;SDS011;8235;52.198;9.904;2023-08-06T06:42:06;3.73;;;3.40;;
16254;SDS011;8235;52.198;9.904;2023-08-06T06:44:34;5.20;;;3.33;;
16254;SDS011;8235;52.198;9.904;2023-08-06T06:47:00;4.47;;;3.60;;
16254;SDS011;8235;52.198;9.904;2023-08-06T06:49:27;4.60;;;3.33;;
16254;SDS011;8235;52.198;9.904;2023-08-06T06:51:53;2.60;;;2.40;;
16254;SDS011;8235;52.198;9.904;2023-08-06T06:54:20;3.17;;;2.57;;
16254;SDS011;8235;52.198;9.904;2023-08-06T06:56:46;4.20;;;2.67;;
16254;SDS011;8235;52.198;9.904;2023-08-06T06:59:13;2.73;;;2.50;;
16254;SDS011;8235;52.198;9.904;2023-08-06T07:01:41;4.37;;;2.53;;
16254;SDS011;8235;52.198;9.904;2023-08-06T07:04:07;3.97;;;2.33;;
16254;SDS011;8235;52.198;9.904;2023-08-06T07:06:34;4.90;;;2.17;;
16254;SDS011;8235;52.198;9.904;2023-08-06T07:09:00;2.50;;;2.30;;
16254;SDS011;8235;52.198;9.904;2023-08-06T07:11:27;2.60;;;2.40;;
16254;SDS011;8235;52.198;9.904;2023-08-06T07:13:55;2.43;;;2.20;;
16254;SDS011;8235;52.198;9.904;2023-08-06T07:16:23;3.60;;;1.93;;
16254;SDS011;8235;52.198;9.904;2023-08-06T07:18:51;2.53;;;1.70;;
16254;SDS011;8235;52.198;9.904;2023-08-06T07:21:18;1.93;;;1.83;;
16254;SDS011;8235;52.198;9.904;2023-08-06T07:23:45;1.87;;;1.60;;
16254;SDS011;8235;52.198;9.904;2023-08-06T07:26:14;2.20;;;1.83;;
16254;SDS011;8235;52.198;9.904;2023-08-06T07:28:40;2.47;;;1.90;;
16254;SDS011;8235;52.198;9.904;2023-08-06T07:31:07;2.37;;;2.00;;
16254;SDS011;8235;52.198;9.904;2023-08-06T07:33:33;1.90;;;1.63;;
16254;SDS011;8235;52.198;9.904;2023-08-06T07:36:06;1.97;;;1.73;;
16254;SDS011;8235;52.198;9.904;2023-08-06T07:38:34;1.90;;;1.57;;
16254;SDS011;8235;52.198;9.904;2023-08-06T07:41:01;2.03;;;1.80;;
16254;SDS011;8235;52.198;9.904;2023-08-06T07:43:27;3.07;;;1.67;;
16254;SDS011;8235;52.198;9.904;2023-08-06T07:45:54;2.30;;;1.70;;
16254;SDS011;8235;52.198;9.904;2023-08-06T07:48:23;2.00;;;1.90;;
16254;SDS011;8235;52.198;9.904;2023-08-06T07:50:51;2.17;;;1.97;;
16254;SDS011;8235;52.198;9.904;2023-08-06T07:53:19;1.90;;;1.70;;
16254;SDS011;8235;52.198;9.904;2023-08-06T07:55:47;1.60;;;1.50;;
16254;SDS011;8235;52.198;9.904;2023-08-06T07:58:15;1.93;;;1.60;;
16254;SDS011;8235;52.198;9.904;2023-08-06T08:00:42;2.90;;;1.70;;
16254;SDS011;8235;52.198;9.904;2023-08-06T08:03:10;2.37;;;1.80;;
16254;SDS011;8235;52.198;9.904;2023-08-06T08:05:37;1.67;;;1.27;;
16254;SDS011;8235;52.198;9.904;2023-08-06T08:08:03;1.93;;;1.57;;
16254;SDS011;8235;52.198;9.904;2023-08-06T08:10:31;1.77;;;1.47;;
16254;SDS011;8235;52.198;9.904;2023-08-06T08:12:58;1.77;;;1.45;;
16254;SDS011;8235;52.198;9.904;2023-08-06T08:15:25;1.75;;;1.48;;
16254;SDS011;8235;52.198;9.904;2023-08-06T08:17:52;2.03;;;1.67;;
16254;SDS011;8235;52.198;9.904;2023-08-06T08:20:18;3.00;;;1.63;;
16254;SDS011;8235;52.198;9.904;2023-08-06T08:22:45;2.20;;;1.63;;
16254;SDS011;8235;52.198;9.904;2023-08-06T08:25:11;1.60;;;1.50;;
16254;SDS011;8235;52.198;9.904;2023-08-06T08:27:39;2.08;;;1.67;;
16254;SDS011;8235;52.198;9.904;2023-08-06T08:30:06;1.58;;;1.48;;
16254;SDS011;8235;52.198;9.904;2023-08-06T08:32:33;2.42;;;1.58;;
16254;SDS011;8235;52.198;9.904;2023-08-06T08:35:00;2.35;;;1.50;;
16254;SDS011;8235;52.198;9.904;2023-08-06T08:37:26;1.58;;;1.48;;
16254;SDS011;8235;52.198;9.904;2023-08-06T08:39:52;3.10;;;1.98;;
16254;SDS011;8235;52.198;9.904;2023-08-06T08:42:19;1.90;;;1.58;;
16254;SDS011;8235;52.198;9.904;2023-08-06T08:44:47;3.70;;;1.67;;
16254;SDS011;8235;52.198;9.904;2023-08-06T08:47:14;2.42;;;2.00;;
16254;SDS011;8235;52.198;9.904;2023-08-06T08:49:41;2.25;;;1.60;;
16254;SDS011;8235;52.198;9.904;2023-08-06T08:52:09;2.95;;;1.60;;
16254;SDS011;8235;52.198;9.904;2023-08-06T08:54:38;2.40;;;1.50;;
16254;SDS011;8235;52.198;9.904;2023-08-06T08:57:04;1.70;;;1.58;;
16254;SDS011;8235;52.198;9.904;2023-08-06T08:59:33;1.70;;;1.52;;
16254;SDS011;8235;52.198;9.904;2023-08-06T09:02:01;3.25;;;1.75;;
16254;SDS011;8235;52.198;9.904;2023-08-06T09:04:28;1.73;;;1.60;;
16254;SDS011;8235;52.198;9.904;2023-08-06T09:06:56;3.60;;;1.60;;
16254;SDS011;8235;52.198;9.904;2023-08-06T09:09:26;3.15;;;1.70;;
16254;SDS011;8235;52.198;9.904;2023-08-06T09:11:54;2.15;;;1.83;;
16254;SDS011;8235;52.198;9.904;2023-08-06T09:14:25;1.50;;;1.40;;
16254;SDS011;8235;52.198;9.904;2023-08-06T09:16:52;2.50;;;1.60;;
16254;SDS011;8235;52.198;9.904;2023-08-06T09:19:20;2.65;;;1.95;;
16254;SDS011;8235;52.198;9.904;2023-08-06T09:21:47;2.05;;;1.50;;
16254;SDS011;8235;52.198;9.904;2023-08-06T09:24:17;1.50;;;1.40;;
16254;SDS011;8235;52.198;9.904;2023-08-06T09:26:45;2.22;;;1.50;;
16254;SDS011;8235;52.198;9.904;2023-08-06T09:29:11;1.67;;;1.55;;
16254;SDS011;8235;52.198;9.904;2023-08-06T09:31:41;2.20;;;1.77;;
16254;SDS011;8235;52.198;9.904;2023-08-06T09:34:11;1.85;;;1.48;;
16254;SDS011;8235;52.198;9.904;2023-08-06T09:36:42;2.33;;;1.48;;
16254;SDS011;8235;52.198;9.904;2023-08-06T09:39:12;1.80;;;1.50;;
16254;SDS011;8235;52.198;9.904;2023-08-06T09:41:40;1.42;;;1.25;;
16254;SDS011;8235;52.198;9.904;2023-08-06T09:44:11;3.85;;;1.70;;
16254;SDS011;8235;52.198;9.904;2023-08-06T09:46:42;2.35;;;1.50;;
16254;SDS011;8235;52.198;9.904;2023-08-06T09:49:08;1.92;;;1.15;;
16254;SDS011;8235;52.198;9.904;2023-08-06T09:51:35;1.30;;;1.17;;
16254;SDS011;8235;52.198;9.904;2023-08-06T09:54:06;3.53;;;1.65;;
16254;SDS011;8235;52.198;9.904;2023-08-06T09:56:33;2.28;;;1.50;;
16254;SDS011;8235;52.198;9.904;2023-08-06T09:59:02;1.40;;;1.30;;
16254;SDS011;8235;52.198;9.904;2023-08-06T10:01:30;1.52;;;1.30;;
16254;SDS011;8235;52.198;9.904;2023-08-06T10:03:58;1.65;;;1.25;;
16254;SDS011;8235;52.198;9.904;2023-08-06T10:06:26;2.65;;;1.40;;
16254;SDS011;8235;52.198;9.904;2023-08-06T10:08:54;1.90;;;1.20;;
16254;SDS011;8235;52.198;9.904;2023-08-06T10:11:23;2.35;;;1.40;;
16254;SDS011;8235;52.198;9.904;2023-08-06T10:13:50;3.67;;;1.83;;
16254;SDS011;8235;52.198;9.904;2023-08-06T10:16:21;1.55;;;1.20;;
16254;SDS011;8235;52.198;9.904;2023-08-06T10:18:48;1.30;;;1.20;;
16254;SDS011;8235;52.198;9.904;2023-08-06T10:21:16;1.40;;;1.30;;
16254;SDS011;8235;52.198;9.904;2023-08-06T10:23:42;2.35;;;1.40;;
16254;SDS011;8235;52.198;9.904;2023-08-06T10:26:09;1.63;;;1.27;;
16254;SDS011;8235;52.198;9.904;2023-08-06T10:28:37;1.70;;;1.50;;
16254;SDS011;8235;52.198;9.904;2023-08-06T10:31:04;2.08;;;1.17;;
16254;SDS011;8235;52.198;9.904;2023-08-06T10:33:41;1.23;;;1.13;;
16254;SDS011;8235;52.198;9.904;2023-08-06T10:36:09;1.52;;;1.40;;
16254;SDS011;8235;52.198;9.904;2023-08-06T10:38:43;1.20;;;1.10;;
16254;SDS011;8235;52.198;9.904;2023-08-06T10:41:14;1.08;;;0.98;;
16254;SDS011;8235;52.198;9.904;2023-08-06T10:43:43;2.45;;;1.40;;
16254;SDS011;8235;52.198;9.904;2023-08-06T10:46:10;1.77;;;1.20;;
16254;SDS011;8235;52.198;9.904;2023-08-06T10:48:46;1.67;;;1.00;;
16254;SDS011;8235;52.198;9.904;2023-08-06T10:51:13;1.50;;;1.10;;
16254;SDS011;8235;52.198;9.904;2023-08-06T10:53:41;1.40;;;1.27;;
16254;SDS011;8235;52.198;9.904;2023-08-06T10:56:12;1.50;;;1.30;;
16254;SDS011;8235;52.198;9.904;2023-08-06T10:58:39;2.05;;;1.23;;
16254;SDS011;8235;52.198;9.904;2023-08-06T11:01:07;2.08;;;1.42;;
16254;SDS011;8235;52.198;9.904;2023-08-06T11:03:34;1.40;;;1.30;;
16254;SDS011;8235;52.198;9.904;2023-08-06T11:06:01;1.13;;;1.00;;
16254;SDS011;8235;52.198;9.904;2023-08-06T11:08:28;1.15;;;1.02;;
16254;SDS011;8235;52.198;9.904;2023-08-06T11:11:07;1.58;;;1.30;;
16254;SDS011;8235;52.198;9.904;2023-08-06T11:13:34;1.95;;;1.20;;
16254;SDS011;8235;52.198;9.904;2023-08-06T11:16:00;1.58;;;1.23;;
16254;SDS011;8235;52.198;9.904;2023-08-06T11:18:29;1.90;;;1.00;;
16254;SDS011;8235;52.198;9.904;2023-08-06T11:20:57;1.45;;;1.13;;
16254;SDS011;8235;52.198;9.904;2023-08-06T11:23:25;1.75;;;1.02;;
16254;SDS011;8235;52.198;9.904;2023-08-06T11:25:53;1.00;;;1.00;;
16254;SDS011;8235;52.198;9.904;2023-08-06T11:28:19;1.30;;;1.08;;
16254;SDS011;8235;52.198;9.904;2023-08-06T11:30:47;2.20;;;1.20;;
16254;SDS011;8235;52.198;9.904;2023-08-06T11:33:13;1.38;;;1.23;;
16254;SDS011;8235;52.198;9.904;2023-08-06T11:35:41;1.23;;;1.02;;
16254;SDS011;8235;52.198;9.904;2023-08-06T11:38:08;1.70;;;1.27;;
16254;SDS011;8235;52.198;9.904;2023-08-06T11:40:35;1.10;;;0.90;;
16254;SDS011;8235;52.198;9.904;2023-08-06T11:43:02;1.25;;;1.10;;
16254;SDS011;8235;52.198;9.904;2023-08-06T11:45:28;1.63;;;1.10;;
16254;SDS011;8235;52.198;9.904;2023-08-06T11:47:55;1.20;;;1.10;;
16254;SDS011;8235;52.198;9.904;2023-08-06T11:50:22;3.03;;;1.17;;
16254;SDS011;8235;52.198;9.904;2023-08-06T11:52:52;2.05;;;1.23;;
16254;SDS011;8235;52.198;9.904;2023-08-06T11:55:22;1.30;;;1.02;;
16254;SDS011;8235;52.198;9.904;2023-08-06T11:57:49;1.10;;;1.00;;
16254;SDS011;8235;52.198;9.904;2023-08-06T12:00:16;2.35;;;1.15;;
16254;SDS011;8235;52.198;9.904;2023-08-06T12:02:43;1.63;;;1.00;;
16254;SDS011;8235;52.198;9.904;2023-08-06T12:05:11;2.35;;;1.02;;
16254;SDS011;8235;52.198;9.904;2023-08-06T12:07:40;1.20;;;1.10;;
16254;SDS011;8235;52.198;9.904;2023-08-06T12:10:09;1.83;;;1.13;;
16254;SDS011;8235;52.198;9.904;2023-08-06T12:12:35;2.28;;;1.27;;
16254;SDS011;8235;52.198;9.904;2023-08-06T12:15:02;1.95;;;1.20;;
16254;SDS011;8235;52.198;9.904;2023-08-06T12:17:30;1.45;;;1.02;;
16254;SDS011;8235;52.198;9.904;2023-08-06T12:19:56;1.25;;;1.13;;
16254;SDS011;8235;52.198;9.904;2023-08-06T12:22:23;1.40;;;1.20;;
16254;SDS011;8235;52.198;9.904;2023-08-06T12:24:49;1.88;;;1.20;;
16254;SDS011;8235;52.198;9.904;2023-08-06T12:27:17;1.45;;;1.35;;
16254;SDS011;8235;52.198;9.904;2023-08-06T12:29:44;0.95;;;0.90;;
16254;SDS011;8235;52.198;9.904;2023-08-06T12:32:12;0.95;;;0.82;;
16254;SDS011;8235;52.198;9.904;2023-08-06T12:34:38;1.08;;;0.98;;
16254;SDS011;8235;52.198;9.904;2023-08-06T12:37:05;1.95;;;1.25;;
16254;SDS011;8235;52.198;9.904;2023-08-06T12:39:32;1.20;;;0.90;;
16254;SDS011;8235;52.198;9.904;2023-08-06T12:42:01;1.98;;;1.00;;
16254;SDS011;8235;52.198;9.904;2023-08-06T12:44:30;1.40;;;0.88;;
16254;SDS011;8235;52.198;9.904;2023-08-06T12:46:57;1.02;;;1.00;;
16254;SDS011;8235;52.198;9.904;2023-08-06T12:49:24;1.20;;;1.02;;
16254;SDS011;8235;52.198;9.904;2023-08-06T12:51:52;1.13;;;1.02;;
16254;SDS011;8235;52.198;9.904;2023-08-06T12:54:19;1.23;;;1.13;;
16254;SDS011;8235;52.198;9.904;2023-08-06T12:56:47;2.20;;;1.23;;
16254;SDS011;8235;52.198;9.904;2023-08-06T12:59:14;2.28;;;1.35;;
16254;SDS011;8235;52.198;9.904;2023-08-06T13:01:43;1.40;;;1.25;;
16254;SDS011;8235;52.198;9.904;2023-08-06T13:04:10;1.40;;;1.25;;
16254;SDS011;8235;52.198;9.904;2023-08-06T13:06:37;1.40;;;1.30;;
16254;SDS011;8235;52.198;9.904;2023-08-06T13:09:05;1.70;;;1.10;;
16254;SDS011;8235;52.198;9.904;2023-08-06T13:11:32;1.95;;;1.40;;
16254;SDS011;8235;52.198;9.904;2023-08-06T13:14:00;1.38;;;1.27;;
16254;SDS011;8235;52.198;9.904;2023-08-06T13:16:30;2.00;;;1.40;;
16254;SDS011;8235;52.198;9.904;2023-08-06T13:18:58;2.55;;;1.58;;
16254;SDS011;8235;52.198;9.904;2023-08-06T13:21:30;1.63;;;1.40;;
16254;SDS011;8235;52.198;9.904;2023-08-06T13:23:58;1.98;;;1.48;;
16254;SDS011;8235;52.198;9.904;2023-08-06T13:26:25;1.88;;;1.70;;
16254;SDS011;8235;52.198;9.904;2023-08-06T13:28:51;1.50;;;1.40;;
16254;SDS011;8235;52.198;9.904;2023-08-06T13:31:18;1.80;;;1.50;;
16254;SDS011;8235;52.198;9.904;2023-08-06T13:33:44;1.40;;;1.30;;
16254;SDS011;8235;52.198;9.904;2023-08-06T13:36:13;2.75;;;1.70;;
16254;SDS011;8235;52.198;9.904;2023-08-06T13:38:40;1.95;;;1.58;;
16254;SDS011;8235;52.198;9.904;2023-08-06T13:41:06;1.67;;;1.58;;
16254;SDS011;8235;52.198;9.904;2023-08-06T13:43:32;1.40;;;1.30;;
16254;SDS011;8235;52.198;9.904;2023-08-06T13:45:59;6.22;;;1.92;;
16254;SDS011;8235;52.198;9.904;2023-08-06T13:48:26;1.77;;;1.45;;
16254;SDS011;8235;52.198;9.904;2023-08-06T13:50:52;2.45;;;1.58;;
16254;SDS011;8235;52.198;9.904;2023-08-06T13:53:20;1.88;;;1.77;;
16254;SDS011;8235;52.198;9.904;2023-08-06T13:55:46;1.60;;;1.50;;
16254;SDS011;8235;52.198;9.904;2023-08-06T13:58:13;2.90;;;1.63;;
16254;SDS011;8235;52.198;9.904;2023-08-06T14:00:39;2.08;;;1.65;;
16254;SDS011;8235;52.198;9.904;2023-08-06T14:03:06;2.22;;;1.60;;
16254;SDS011;8235;52.198;9.904;2023-08-06T14:05:33;2.13;;;1.27;;
16254;SDS011;8235;52.198;9.904;2023-08-06T14:08:00;2.08;;;1.73;;
16254;SDS011;8235;52.198;9.904;2023-08-06T14:10:27;2.65;;;1.50;;
16254;SDS011;8235;52.198;9.904;2023-08-06T14:12:54;1.60;;;1.50;;
16254;SDS011;8235;52.198;9.904;2023-08-06T14:15:20;1.70;;;1.23;;
16254;SDS011;8235;52.198;9.904;2023-08-06T14:17:47;2.45;;;1.48;;
16254;SDS011;8235;52.198;9.904;2023-08-06T14:20:14;2.67;;;2.00;;
16254;SDS011;8235;52.198;9.904;2023-08-06T14:22:40;1.85;;;1.65;;
16254;SDS011;8235;52.198;9.904;2023-08-06T14:25:07;1.77;;;1.55;;
16254;SDS011;8235;52.198;9.904;2023-08-06T14:27:35;2.53;;;1.60;;
16254;SDS011;8235;52.198;9.904;2023-08-06T14:30:04;2.08;;;1.50;;
16254;SDS011;8235;52.198;9.904;2023-08-06T14:32:31;2.42;;;1.70;;
16254;SDS011;8235;52.198;9.904;2023-08-06T14:34:58;1.67;;;1.50;;
16254;SDS011;8235;52.198;9.904;2023-08-06T14:37:24;1.90;;;1.80;;
16254;SDS011;8235;52.198;9.904;2023-08-06T14:39:51;2.22;;;2.03;;
16254;SDS011;8235;52.198;9.904;2023-08-06T14:42:17;1.90;;;1.80;;
16254;SDS011;8235;52.198;9.904;2023-08-06T14:44:45;1.92;;;1.60;;
16254;SDS011;8235;52.198;9.904;2023-08-06T14:47:12;1.85;;;1.70;;
16254;SDS011;8235;52.198;9.904;2023-08-06T14:49:38;2.58;;;1.58;;
16254;SDS011;8235;52.198;9.904;2023-08-06T14:52:05;2.00;;;1.80;;
16254;SDS011;8235;52.198;9.904;2023-08-06T14:54:32;1.60;;;1.50;;
16254;SDS011;8235;52.198;9.904;2023-08-06T14:56:58;2.95;;;1.77;;
16254;SDS011;8235;52.198;9.904;2023-08-06T14:59:25;2.15;;;1.83;;
16254;SDS011;8235;52.198;9.904;2023-08-06T15:01:53;2.38;;;2.00;;